createdAt,value
2022-11-04T00:00:09.119Z,19.27
2022-11-04T00:00:31.949Z,18.52
2022-11-04T00:00:54.759Z,18.88
2022-11-04T00:01:17.597Z,19.50
2022-11-04T00:01:40.811Z,19.48
2022-11-04T00:02:04.092Z,19.13
2022-11-04T00:02:27.660Z,18.85
2022-11-04T00:02:50.443Z,19.38
2022-11-04T00:03:13.311Z,19.05
2022-11-04T00:03:35.931Z,18.67
2022-11-04T00:03:58.656Z,18.98
2022-11-04T00:04:23.716Z,18.75
2022-11-04T00:04:46.510Z,18.67
2022-11-04T00:05:09.500Z,19.20
2022-11-04T00:05:32.666Z,19.23
2022-11-04T00:05:55.372Z,18.92
2022-11-04T00:06:18.131Z,18.90
2022-11-04T00:06:40.921Z,19.17
2022-11-04T00:07:23.784Z,18.85
2022-11-04T00:08:04.890Z,18.95
2022-11-04T00:08:27.681Z,19.08
2022-11-04T00:08:53.417Z,18.63
2022-11-04T00:09:17.521Z,18.67
2022-11-04T00:09:40.260Z,19.27
2022-11-04T00:10:03.002Z,19.50
2022-11-04T00:10:45.680Z,19.20
2022-11-04T00:11:28.330Z,18.60
2022-11-04T00:12:09.571Z,18.38
2022-11-04T00:12:32.291Z,18.88
2022-11-04T00:12:56.756Z,18.48
2022-11-04T00:13:19.524Z,18.38
2022-11-04T00:13:42.392Z,17.98
2022-11-04T00:14:05.599Z,18.85
2022-11-04T00:14:29.977Z,18.13
2022-11-04T00:14:52.926Z,18.05
2022-11-04T00:15:34.414Z,18.88
2022-11-04T00:16:18.999Z,18.55
2022-11-04T00:17:00.309Z,18.30
2022-11-04T00:17:23.600Z,18.55
2022-11-04T00:17:46.370Z,18.42
2022-11-04T00:18:09.055Z,18.13
2022-11-04T00:18:31.767Z,17.98
2022-11-04T00:18:54.498Z,18.48
2022-11-04T00:19:17.366Z,17.90
2022-11-04T00:19:58.497Z,18.05
2022-11-04T00:20:39.745Z,17.50
2022-11-04T00:21:21.263Z,18.13
2022-11-04T00:22:02.465Z,18.00
2022-11-04T00:22:43.451Z,18.73
2022-11-04T00:23:24.740Z,18.35
2022-11-04T00:24:05.971Z,18.63
2022-11-04T00:24:43.180Z,18.80
2022-11-04T00:25:24.865Z,19.13
2022-11-04T00:26:06.201Z,19.40
2022-11-04T00:26:47.466Z,18.75
2022-11-04T00:27:28.852Z,18.58
2022-11-04T00:28:10.090Z,19.05
2022-11-04T00:28:43.559Z,18.60
2022-11-04T00:29:06.251Z,18.88
2022-11-04T00:29:28.946Z,18.67
2022-11-04T00:29:51.695Z,18.52
2022-11-04T00:30:14.385Z,18.63
2022-11-04T00:30:37.101Z,18.17
2022-11-04T00:31:19.294Z,18.85
2022-11-04T00:32:00.635Z,18.95
2022-11-04T00:32:42.274Z,20.15
2022-11-04T00:33:23.381Z,19.48
2022-11-04T00:33:46.078Z,22.35
2022-11-04T00:34:08.976Z,21.40
2022-11-04T00:34:31.670Z,22.90
2022-11-04T00:34:54.283Z,22.10
2022-11-04T00:35:17.167Z,22.13
2022-11-04T00:35:39.883Z,21.65
2022-11-04T00:36:02.592Z,21.92
2022-11-04T00:36:25.505Z,22.95
2022-11-04T00:36:48.161Z,22.23
2022-11-04T00:37:11.880Z,21.90
2022-11-04T00:37:37.089Z,21.77
2022-11-04T00:37:59.846Z,21.48
2022-11-04T00:38:23.050Z,21.58
2022-11-04T00:38:45.810Z,22.23
2022-11-04T00:39:08.454Z,22.40
2022-11-04T00:39:32.314Z,21.00
2022-11-04T00:39:54.939Z,21.67
2022-11-04T00:40:17.725Z,22.13
2022-11-04T00:40:40.461Z,22.27
2022-11-04T00:41:03.160Z,22.50
2022-11-04T00:41:30.134Z,21.42
2022-11-04T00:41:53.131Z,20.80
2022-11-04T00:42:15.786Z,21.67
2022-11-04T00:42:38.533Z,21.83
2022-11-04T00:43:01.253Z,21.27
2022-11-04T00:43:23.965Z,21.20
2022-11-04T00:43:48.020Z,20.38
2022-11-04T00:44:10.634Z,19.83
2022-11-04T00:44:33.375Z,19.33
2022-11-04T00:44:56.075Z,19.33
2022-11-04T00:45:18.871Z,20.00
2022-11-04T00:45:41.764Z,19.42
2022-11-04T00:46:04.536Z,19.70
2022-11-04T00:46:27.395Z,20.02
2022-11-04T00:46:50.094Z,19.83
2022-11-04T00:47:12.735Z,19.70
2022-11-04T00:47:35.637Z,19.52
2022-11-04T00:47:58.301Z,19.85
2022-11-04T00:48:20.920Z,19.95
2022-11-04T00:48:43.565Z,19.33
2022-11-04T00:49:07.374Z,19.55
2022-11-04T00:49:30.120Z,19.92
2022-11-04T00:49:52.852Z,19.88
2022-11-04T00:50:15.510Z,20.20
2022-11-04T00:50:38.414Z,20.65
2022-11-04T00:51:01.168Z,20.55
2022-11-04T00:51:24.978Z,20.85
2022-11-04T00:51:47.656Z,20.45
2022-11-04T00:52:10.321Z,19.83
2022-11-04T00:52:33.786Z,20.45
2022-11-04T00:52:59.690Z,21.67
2022-11-04T00:53:22.371Z,20.60
2022-11-04T00:53:45.045Z,19.65
2022-11-04T00:54:07.750Z,19.85
2022-11-04T00:54:30.465Z,19.38
2022-11-04T00:54:53.071Z,19.55
2022-11-04T00:55:15.889Z,19.42
2022-11-04T00:55:40.050Z,19.83
2022-11-04T00:56:02.791Z,20.05
2022-11-04T00:56:25.500Z,19.38
2022-11-04T00:56:48.741Z,19.92
2022-11-04T00:57:11.416Z,20.42
2022-11-04T00:57:34.175Z,19.80
2022-11-04T00:57:57.798Z,20.13
2022-11-04T00:58:20.522Z,19.92
2022-11-04T00:58:47.450Z,19.15
2022-11-04T00:59:13.504Z,19.20
2022-11-04T00:59:37.352Z,19.38
2022-11-04T01:00:00.129Z,19.15
2022-11-04T01:00:23.871Z,18.90
2022-11-04T01:00:46.561Z,19.38
2022-11-04T01:01:09.761Z,19.65
2022-11-04T01:01:32.676Z,19.55
2022-11-04T01:01:56.132Z,19.27
2022-11-04T01:02:19.152Z,18.50
2022-11-04T01:02:41.963Z,19.48
2022-11-04T01:03:04.979Z,20.10
2022-11-04T01:03:27.888Z,19.13
2022-11-04T01:03:51.514Z,19.02
2022-11-04T01:04:14.529Z,19.83
2022-11-04T01:04:37.294Z,19.35
2022-11-04T01:05:00.034Z,19.70
2022-11-04T01:05:22.689Z,19.50
2022-11-04T01:05:45.361Z,19.50
2022-11-04T01:06:08.191Z,18.88
2022-11-04T01:06:30.910Z,19.55
2022-11-04T01:06:53.656Z,19.90
2022-11-04T01:07:16.326Z,19.80
2022-11-04T01:07:43.525Z,18.80
2022-11-04T01:08:06.556Z,18.98
2022-11-04T01:08:29.219Z,19.17
2022-11-04T01:08:55.996Z,18.80
2022-11-04T01:09:18.785Z,18.77
2022-11-04T01:09:41.751Z,19.35
2022-11-04T01:10:04.941Z,19.70
2022-11-04T01:10:27.661Z,19.05
2022-11-04T01:10:50.315Z,18.70
2022-11-04T01:11:13.020Z,19.20
2022-11-04T01:11:35.826Z,19.70
2022-11-04T01:11:58.499Z,19.27
2022-11-04T01:12:21.225Z,19.33
2022-11-04T01:12:43.953Z,19.92
2022-11-04T01:13:06.941Z,19.42
2022-11-04T01:13:30.114Z,18.88
2022-11-04T01:13:54.155Z,18.95
2022-11-04T01:14:16.945Z,18.95
2022-11-04T01:14:39.665Z,19.15
2022-11-04T01:15:02.412Z,19.52
2022-11-04T01:15:25.054Z,18.95
2022-11-04T01:15:48.311Z,19.35
2022-11-04T01:16:11.322Z,19.08
2022-11-04T01:16:34.253Z,18.90
2022-11-04T01:16:57.065Z,19.00
2022-11-04T01:17:19.756Z,18.77
2022-11-04T01:17:42.478Z,19.05
2022-11-04T01:18:06.209Z,19.65
2022-11-04T01:18:29.245Z,19.20
2022-11-04T01:18:52.067Z,19.30
2022-11-04T01:19:14.727Z,19.42
2022-11-04T01:19:37.538Z,19.20
2022-11-04T01:20:00.324Z,19.25
2022-11-04T01:20:23.005Z,19.67
2022-11-04T01:20:45.650Z,19.38
2022-11-04T01:21:08.956Z,19.55
2022-11-04T01:21:31.830Z,19.45
2022-11-04T01:21:54.506Z,18.92
2022-11-04T01:22:18.654Z,19.17
2022-11-04T01:22:41.315Z,19.00
2022-11-04T01:23:04.001Z,18.48
2022-11-04T01:23:26.630Z,18.75
2022-11-04T01:23:49.554Z,19.48
2022-11-04T01:24:12.315Z,19.02
2022-11-04T01:24:35.030Z,19.25
2022-11-04T01:24:57.820Z,19.15
2022-11-04T01:25:20.561Z,18.45
2022-11-04T01:25:43.254Z,18.20
2022-11-04T01:26:06.590Z,18.92
2022-11-04T01:26:31.125Z,18.67
2022-11-04T01:26:53.875Z,19.38
2022-11-04T01:27:16.585Z,18.95
2022-11-04T01:27:39.469Z,18.98
2022-11-04T01:28:02.240Z,19.17
2022-11-04T01:28:24.896Z,18.95
2022-11-04T01:28:47.591Z,18.70
2022-11-04T01:29:12.743Z,18.98
2022-11-04T01:29:35.515Z,18.02
2022-11-04T01:29:58.194Z,18.35
2022-11-04T01:30:21.046Z,18.42
2022-11-04T01:30:43.834Z,19.23
2022-11-04T01:31:07.377Z,18.58
2022-11-04T01:31:30.899Z,18.45
2022-11-04T01:31:53.786Z,18.83
2022-11-04T01:32:17.516Z,18.50
2022-11-04T01:32:40.236Z,18.20
2022-11-04T01:33:03.013Z,18.73
2022-11-04T01:33:25.698Z,18.98
2022-11-04T01:33:48.660Z,18.90
2022-11-04T01:34:11.376Z,18.40
2022-11-04T01:34:36.827Z,19.20
2022-11-04T01:35:02.063Z,18.30
2022-11-04T01:35:24.791Z,18.48
2022-11-04T01:35:47.611Z,18.52
2022-11-04T01:36:10.781Z,18.77
2022-11-04T01:36:33.717Z,18.00
2022-11-04T01:36:56.426Z,18.45
2022-11-04T01:37:19.125Z,18.42
2022-11-04T01:37:41.763Z,18.92
2022-11-04T01:38:04.471Z,18.95
2022-11-04T01:38:27.149Z,18.83
2022-11-04T01:38:51.929Z,18.92
2022-11-04T01:39:14.649Z,19.08
2022-11-04T01:39:37.391Z,19.58
2022-11-04T01:40:00.103Z,19.27
2022-11-04T01:40:22.875Z,19.27
2022-11-04T01:40:45.542Z,18.88
2022-11-04T01:41:09.835Z,19.17
2022-11-04T01:41:33.932Z,18.90
2022-11-04T01:41:59.133Z,19.10
2022-11-04T01:42:22.060Z,18.52
2022-11-04T01:42:44.735Z,18.17
2022-11-04T01:43:10.702Z,18.73
2022-11-04T01:43:43.875Z,19.03
2022-11-04T01:44:40.164Z,19.58
2022-11-04T01:45:09.255Z,19.10
2022-11-04T01:45:33.135Z,19.80
2022-11-04T01:45:56.842Z,18.58
2022-11-04T01:46:26.685Z,18.73
2022-11-04T01:46:50.910Z,19.35
2022-11-04T01:47:14.530Z,19.90
2022-11-04T01:47:40.027Z,19.50
2022-11-04T01:48:04.857Z,19.55
2022-11-04T01:48:29.177Z,18.92
2022-11-04T01:48:52.363Z,19.20
2022-11-04T01:49:24.546Z,19.17
2022-11-04T01:49:49.288Z,18.73
2022-11-04T01:50:13.857Z,18.42
2022-11-04T01:50:36.644Z,18.50
2022-11-04T01:50:59.423Z,18.90
2022-11-04T01:51:22.213Z,19.02
2022-11-04T01:51:45.058Z,18.73
2022-11-04T01:52:09.958Z,19.17
2022-11-04T01:52:35.883Z,18.75
2022-11-04T01:53:01.169Z,18.67
2022-11-04T01:53:25.543Z,19.30
2022-11-04T01:53:48.369Z,19.15
2022-11-04T01:54:11.138Z,18.80
2022-11-04T01:54:33.883Z,18.58
2022-11-04T01:54:58.258Z,18.13
2022-11-04T01:55:23.260Z,18.63
2022-11-04T01:55:47.873Z,19.02
2022-11-04T01:56:12.402Z,18.10
2022-11-04T01:56:35.130Z,18.95
2022-11-04T01:56:57.935Z,18.67
2022-11-04T01:57:26.479Z,18.83
2022-11-04T01:57:49.959Z,18.50
2022-11-04T01:58:16.051Z,18.55
2022-11-04T01:58:40.859Z,18.92
2022-11-04T01:59:05.775Z,19.23
2022-11-04T01:59:30.553Z,19.15
2022-11-04T01:59:53.428Z,18.52
2022-11-04T02:00:18.553Z,18.95
2022-11-04T02:00:41.509Z,18.63
2022-11-04T02:01:04.213Z,18.13
2022-11-04T02:01:27.121Z,19.08
2022-11-04T02:01:50.145Z,18.98
2022-11-04T02:02:13.107Z,18.92
2022-11-04T02:02:37.413Z,18.45
2022-11-04T02:03:00.969Z,18.30
2022-11-04T02:03:25.949Z,17.92
2022-11-04T02:03:51.097Z,18.30
2022-11-04T02:04:25.849Z,18.27
2022-11-04T02:04:48.638Z,18.35
2022-11-04T02:05:11.444Z,18.33
2022-11-04T02:05:34.218Z,18.60
2022-11-04T02:05:56.978Z,19.23
2022-11-04T02:06:20.328Z,18.88
2022-11-04T02:06:43.089Z,19.02
2022-11-04T02:07:07.370Z,18.27
2022-11-04T02:07:31.430Z,19.63
2022-11-04T02:07:55.675Z,19.63
2022-11-04T02:08:18.407Z,19.02
2022-11-04T02:08:41.203Z,18.95
2022-11-04T02:09:04.079Z,19.05
2022-11-04T02:09:28.309Z,19.02
2022-11-04T02:09:51.075Z,19.52
2022-11-04T02:10:13.744Z,18.40
2022-11-04T02:10:37.695Z,17.98
2022-11-04T02:11:01.859Z,18.85
2022-11-04T02:11:43.493Z,18.75
2022-11-04T02:12:25.049Z,18.83
2022-11-04T02:12:50.503Z,18.98
2022-11-04T02:13:13.303Z,19.52
2022-11-04T02:13:36.482Z,19.02
2022-11-04T02:13:59.429Z,19.00
2022-11-04T02:14:22.152Z,18.67
2022-11-04T02:14:44.939Z,18.73
2022-11-04T02:15:08.659Z,18.88
2022-11-04T02:15:37.650Z,19.58
2022-11-04T02:16:04.209Z,19.95
2022-11-04T02:16:36.568Z,19.40
2022-11-04T02:17:04.382Z,19.38
2022-11-04T02:18:04.043Z,19.77
2022-11-04T02:18:38.418Z,19.17
2022-11-04T02:19:04.978Z,19.13
2022-11-04T02:19:38.916Z,18.35
2022-11-04T02:20:44.487Z,19.45
2022-11-04T02:21:35.670Z,19.13
2022-11-04T02:22:14.746Z,18.90
2022-11-04T02:23:08.002Z,18.67
2022-11-04T02:23:45.638Z,19.25
2022-11-04T02:24:43.317Z,18.75
2022-11-04T02:25:19.089Z,19.35
2022-11-04T02:26:06.629Z,19.25
2022-11-04T02:26:54.823Z,18.55
2022-11-04T02:27:22.243Z,19.27
2022-11-04T02:27:54.200Z,19.55
2022-11-04T02:28:34.403Z,18.77
2022-11-04T02:29:14.913Z,17.83
2022-11-04T02:30:08.104Z,18.95
2022-11-04T02:30:32.183Z,18.70
2022-11-04T02:30:58.893Z,18.70
2022-11-04T02:31:24.199Z,18.90
2022-11-04T02:31:51.029Z,18.25
2022-11-04T02:32:18.118Z,18.75
2022-11-04T02:32:58.260Z,18.45
2022-11-04T02:33:22.365Z,18.65
2022-11-04T02:33:48.384Z,18.95
2022-11-04T02:34:12.528Z,18.52
2022-11-04T02:34:40.998Z,18.15
2022-11-04T02:35:05.775Z,18.33
2022-11-04T02:35:33.519Z,18.13
2022-11-04T02:36:00.377Z,17.30
2022-11-04T02:36:30.058Z,18.67
2022-11-04T02:36:56.655Z,18.98
2022-11-04T02:37:25.133Z,18.65
2022-11-04T02:37:51.377Z,17.88
2022-11-04T02:38:19.925Z,18.35
2022-11-04T02:38:47.502Z,18.70
2022-11-04T02:39:15.437Z,19.30
2022-11-04T02:39:41.775Z,19.05
2022-11-04T02:40:10.095Z,18.45
2022-11-04T02:40:38.468Z,18.00
2022-11-04T02:41:04.797Z,18.60
2022-11-04T02:41:31.129Z,18.63
2022-11-04T02:41:55.978Z,18.75
2022-11-04T02:42:23.449Z,18.90
2022-11-04T02:42:55.210Z,19.05
2022-11-04T02:43:22.898Z,18.65
2022-11-04T02:43:52.049Z,18.30
2022-11-04T02:44:18.624Z,19.00
2022-11-04T02:44:43.208Z,18.48
2022-11-04T02:45:14.713Z,18.45
2022-11-04T02:45:39.301Z,17.48
2022-11-04T02:46:03.522Z,18.75
2022-11-04T02:46:28.874Z,18.90
2022-11-04T02:46:53.538Z,18.40
2022-11-04T02:47:17.221Z,18.45
2022-11-04T02:47:42.100Z,19.08
2022-11-04T02:48:08.488Z,18.45
2022-11-04T02:48:35.669Z,18.95
2022-11-04T02:49:00.678Z,18.63
2022-11-04T02:49:26.159Z,19.13
2022-11-04T02:49:51.454Z,19.33
2022-11-04T02:50:17.358Z,18.75
2022-11-04T02:50:43.609Z,18.98
2022-11-04T02:51:09.133Z,19.10
2022-11-04T02:51:33.127Z,20.15
2022-11-04T02:51:58.404Z,20.13
2022-11-04T02:52:25.623Z,18.80
2022-11-04T02:52:52.357Z,20.10
2022-11-04T02:53:17.695Z,18.73
2022-11-04T02:53:43.818Z,19.35
2022-11-04T02:54:08.244Z,19.17
2022-11-04T02:54:36.317Z,19.27
2022-11-04T02:55:00.961Z,19.40
2022-11-04T02:55:25.753Z,18.77
2022-11-04T02:55:49.786Z,19.50
2022-11-04T02:56:12.462Z,19.10
2022-11-04T02:56:36.649Z,18.83
2022-11-04T02:56:59.534Z,19.13
2022-11-04T02:57:23.176Z,19.13
2022-11-04T02:57:46.969Z,19.30
2022-11-04T02:58:11.559Z,19.00
2022-11-04T02:58:39.162Z,19.40
2022-11-04T02:59:03.748Z,19.65
2022-11-04T02:59:31.573Z,19.92
2022-11-04T02:59:56.489Z,19.60
2022-11-04T03:00:23.347Z,19.33
2022-11-04T03:00:46.077Z,19.45
2022-11-04T03:01:09.522Z,19.42
2022-11-04T03:01:34.753Z,19.50
2022-11-04T03:01:57.750Z,19.45
2022-11-04T03:02:24.058Z,19.75
2022-11-04T03:02:49.122Z,19.65
2022-11-04T03:03:12.794Z,19.33
2022-11-04T03:03:37.911Z,19.33
2022-11-04T03:04:02.011Z,19.38
2022-11-04T03:04:26.630Z,19.00
2022-11-04T03:04:50.886Z,19.30
2022-11-04T03:05:14.891Z,18.90
2022-11-04T03:05:38.565Z,18.98
2022-11-04T03:06:01.392Z,19.50
2022-11-04T03:06:24.492Z,20.08
2022-11-04T03:06:48.976Z,19.35
2022-11-04T03:07:12.946Z,20.17
2022-11-04T03:07:37.754Z,19.92
2022-11-04T03:08:02.260Z,20.35
2022-11-04T03:08:27.548Z,20.10
2022-11-04T03:08:51.891Z,20.83
2022-11-04T03:09:14.726Z,20.70
2022-11-04T03:09:37.456Z,20.50
2022-11-04T03:10:01.990Z,20.10
2022-11-04T03:10:26.316Z,20.63
2022-11-04T03:10:51.198Z,21.23
2022-11-04T03:11:15.532Z,20.33
2022-11-04T03:11:38.425Z,19.83
2022-11-04T03:12:02.656Z,20.67
2022-11-04T03:12:28.240Z,21.20
2022-11-04T03:12:53.755Z,20.83
2022-11-04T03:13:17.480Z,20.85
2022-11-04T03:13:42.101Z,21.25
2022-11-04T03:14:06.417Z,20.98
2022-11-04T03:14:32.806Z,20.55
2022-11-04T03:14:56.371Z,19.83
2022-11-04T03:15:21.704Z,20.83
2022-11-04T03:15:48.475Z,20.63
2022-11-04T03:16:13.426Z,20.05
2022-11-04T03:16:38.290Z,21.25
2022-11-04T03:17:04.236Z,20.55
2022-11-04T03:17:29.972Z,20.98
2022-11-04T03:17:56.139Z,20.90
2022-11-04T03:18:22.847Z,20.08
2022-11-04T03:18:50.672Z,20.75
2022-11-04T03:19:15.050Z,21.50
2022-11-04T03:19:40.945Z,20.42
2022-11-04T03:20:06.306Z,20.58
2022-11-04T03:20:29.009Z,20.65
2022-11-04T03:20:51.921Z,20.98
2022-11-04T03:21:14.739Z,21.38
2022-11-04T03:21:39.591Z,21.42
2022-11-04T03:22:04.325Z,21.10
2022-11-04T03:22:28.160Z,20.85
2022-11-04T03:22:51.003Z,21.35
2022-11-04T03:23:13.776Z,20.88
2022-11-04T03:23:37.506Z,20.70
2022-11-04T03:24:00.341Z,19.60
2022-11-04T03:24:23.006Z,20.77
2022-11-04T03:24:46.241Z,20.88
2022-11-04T03:25:09.686Z,21.55
2022-11-04T03:25:34.712Z,20.92
2022-11-04T03:26:02.136Z,20.95
2022-11-04T03:26:28.781Z,20.70
2022-11-04T03:26:55.101Z,20.60
2022-11-04T03:27:21.995Z,21.35
2022-11-04T03:27:47.729Z,21.73
2022-11-04T03:28:18.236Z,20.80
2022-11-04T03:28:44.825Z,21.65
2022-11-04T03:29:17.096Z,21.73
2022-11-04T03:29:45.599Z,20.85
2022-11-04T03:30:10.153Z,21.23
2022-11-04T03:30:37.807Z,21.85
2022-11-04T03:31:02.415Z,20.85
2022-11-04T03:31:27.686Z,21.88
2022-11-04T03:31:53.972Z,21.27
2022-11-04T03:32:21.101Z,22.35
2022-11-04T03:32:45.735Z,21.20
2022-11-04T03:33:12.354Z,21.80
2022-11-04T03:33:39.378Z,23.17
2022-11-04T03:34:02.102Z,22.33
2022-11-04T03:34:24.834Z,22.00
2022-11-04T03:34:47.520Z,21.85
2022-11-04T03:35:10.265Z,22.30
2022-11-04T03:35:32.987Z,22.65
2022-11-04T03:35:55.701Z,22.48
2022-11-04T03:36:18.547Z,22.25
2022-11-04T03:36:41.379Z,23.10
2022-11-04T03:37:04.156Z,22.17
2022-11-04T03:37:26.923Z,22.67
2022-11-04T03:37:50.240Z,23.03
2022-11-04T03:38:12.996Z,22.85
2022-11-04T03:38:35.782Z,23.13
2022-11-04T03:38:58.500Z,23.08
2022-11-04T03:39:21.248Z,23.50
2022-11-04T03:39:44.507Z,23.13
2022-11-04T03:40:09.361Z,23.02
2022-11-04T03:40:32.161Z,23.50
2022-11-04T03:40:54.901Z,23.65
2022-11-04T03:41:20.106Z,23.52
2022-11-04T03:41:44.328Z,23.35
2022-11-04T03:42:20.857Z,22.77
2022-11-04T03:42:46.468Z,22.92
2022-11-04T03:43:11.443Z,22.55
2022-11-04T03:43:34.606Z,23.25
2022-11-04T03:43:57.311Z,22.67
2022-11-04T03:44:20.610Z,23.33
2022-11-04T03:44:44.808Z,23.35
2022-11-04T03:45:09.137Z,23.23
2022-11-04T03:45:31.866Z,23.23
2022-11-04T03:45:54.723Z,23.20
2022-11-04T03:46:17.508Z,23.05
2022-11-04T03:46:40.730Z,23.40
2022-11-04T03:47:03.527Z,23.65
2022-11-04T03:47:28.197Z,23.20
2022-11-04T03:47:51.031Z,23.00
2022-11-04T03:48:13.842Z,22.42
2022-11-04T03:48:36.652Z,22.73
2022-11-04T03:49:00.658Z,22.90
2022-11-04T03:49:23.397Z,22.85
2022-11-04T03:49:46.638Z,22.90
2022-11-04T03:50:11.577Z,23.85
2022-11-04T03:50:39.693Z,23.75
2022-11-04T03:51:02.601Z,23.48
2022-11-04T03:51:25.406Z,23.65
2022-11-04T03:51:48.189Z,23.27
2022-11-04T03:52:10.922Z,23.85
2022-11-04T03:52:33.901Z,24.52
2022-11-04T03:52:56.969Z,24.08
2022-11-04T03:53:22.196Z,23.52
2022-11-04T03:53:45.046Z,23.77
2022-11-04T03:54:08.191Z,25.02
2022-11-04T03:54:35.707Z,23.85
2022-11-04T03:54:58.552Z,23.77
2022-11-04T03:55:22.097Z,23.23
2022-11-04T03:55:49.408Z,23.65
2022-11-04T03:56:25.477Z,23.75
2022-11-04T03:57:06.998Z,23.45
2022-11-04T03:57:36.067Z,23.70
2022-11-04T03:58:00.958Z,23.67
2022-11-04T03:58:28.322Z,23.83
2022-11-04T03:58:59.397Z,23.58
2022-11-04T03:59:44.486Z,24.00
2022-11-04T04:00:11.056Z,24.05
2022-11-04T04:00:37.949Z,24.13
2022-11-04T04:01:03.846Z,24.15
2022-11-04T04:01:29.084Z,23.48
2022-11-04T04:01:54.406Z,23.20
2022-11-04T04:02:19.292Z,23.10
2022-11-04T04:02:47.889Z,24.33
2022-11-04T04:03:12.776Z,24.08
2022-11-04T04:03:38.317Z,23.27
2022-11-04T04:04:03.910Z,23.38
2022-11-04T04:04:28.802Z,23.48
2022-11-04T04:04:55.042Z,23.25
2022-11-04T04:05:20.503Z,23.95
2022-11-04T04:05:45.717Z,23.05
2022-11-04T04:06:09.732Z,23.52
2022-11-04T04:06:34.847Z,23.77
2022-11-04T04:07:00.837Z,23.83
2022-11-04T04:07:30.008Z,23.60
2022-11-04T04:07:56.810Z,23.08
2022-11-04T04:08:23.011Z,22.65
2022-11-04T04:08:47.340Z,23.00
2022-11-04T04:09:12.770Z,24.35
2022-11-04T04:09:39.073Z,24.13
2022-11-04T04:10:24.724Z,23.52
2022-11-04T04:10:52.843Z,23.75
2022-11-04T04:11:17.958Z,23.73
2022-11-04T04:11:43.204Z,23.58
2022-11-04T04:12:10.218Z,24.10
2022-11-04T04:12:35.556Z,24.35
2022-11-04T04:12:59.629Z,24.15
2022-11-04T04:13:28.209Z,23.85
2022-11-04T04:13:53.933Z,24.27
2022-11-04T04:14:38.843Z,24.48
2022-11-04T04:15:05.922Z,24.60
2022-11-04T04:15:31.271Z,24.08
2022-11-04T04:15:56.589Z,24.45
2022-11-04T04:16:23.381Z,24.77
2022-11-04T04:16:49.762Z,25.02
2022-11-04T04:17:17.131Z,24.92
2022-11-04T04:17:41.829Z,25.25
2022-11-04T04:18:06.347Z,25.13
2022-11-04T04:18:32.332Z,24.17
2022-11-04T04:18:58.583Z,24.30
2022-11-04T04:19:24.100Z,24.20
2022-11-04T04:19:49.453Z,25.45
2022-11-04T04:20:13.758Z,25.25
2022-11-04T04:20:36.534Z,24.70
2022-11-04T04:21:00.136Z,25.55
2022-11-04T04:21:24.814Z,24.92
2022-11-04T04:21:51.776Z,25.52
2022-11-04T04:22:16.004Z,25.30
2022-11-04T04:22:41.929Z,25.42
2022-11-04T04:23:26.177Z,24.88
2022-11-04T04:24:07.538Z,25.38
2022-11-04T04:24:53.200Z,24.80
2022-11-04T04:25:35.025Z,24.08
2022-11-04T04:26:18.459Z,24.10
2022-11-04T04:26:59.874Z,25.08
2022-11-04T04:27:32.161Z,24.70
2022-11-04T04:27:55.016Z,25.20
2022-11-04T04:28:18.081Z,25.33
2022-11-04T04:28:40.844Z,24.65
2022-11-04T04:29:03.768Z,24.23
2022-11-04T04:29:26.884Z,25.27
2022-11-04T04:29:50.929Z,25.15
2022-11-04T04:30:15.119Z,24.70
2022-11-04T04:30:39.816Z,23.65
2022-11-04T04:31:03.734Z,24.33
2022-11-04T04:31:44.959Z,24.55
2022-11-04T04:32:07.719Z,24.52
2022-11-04T04:32:33.454Z,24.30
2022-11-04T04:32:58.277Z,24.30
2022-11-04T04:33:20.969Z,24.52
2022-11-04T04:33:43.919Z,25.38
2022-11-04T04:34:06.639Z,24.60
2022-11-04T04:34:30.864Z,24.42
2022-11-04T04:35:16.320Z,24.70
2022-11-04T04:35:44.139Z,24.58
2022-11-04T04:36:07.422Z,24.85
2022-11-04T04:36:30.885Z,24.67
2022-11-04T04:36:57.688Z,24.75
2022-11-04T04:37:21.293Z,24.17
2022-11-04T04:37:44.424Z,24.95
2022-11-04T04:38:27.009Z,25.25
2022-11-04T04:39:08.110Z,24.50
2022-11-04T04:39:59.384Z,25.05
2022-11-04T04:40:43.044Z,24.38
2022-11-04T04:41:27.860Z,23.95
2022-11-04T04:42:09.473Z,23.38
2022-11-04T04:42:51.429Z,24.15
2022-11-04T04:43:34.173Z,24.50
2022-11-04T04:44:16.726Z,23.67
2022-11-04T04:44:58.505Z,24.23
2022-11-04T04:45:22.618Z,24.60
2022-11-04T04:45:50.084Z,25.02
2022-11-04T04:46:12.919Z,23.98
2022-11-04T04:46:35.660Z,23.92
2022-11-04T04:46:58.399Z,24.52
2022-11-04T04:47:22.589Z,24.73
2022-11-04T04:47:45.993Z,24.77
2022-11-04T04:48:09.669Z,25.25
2022-11-04T04:48:32.435Z,24.27
2022-11-04T04:48:55.160Z,24.75
2022-11-04T04:49:17.863Z,25.42
2022-11-04T04:49:50.253Z,25.30
2022-11-04T04:50:14.535Z,23.67
2022-11-04T04:50:39.788Z,23.98
2022-11-04T04:51:02.559Z,24.40
2022-11-04T04:51:25.301Z,23.83
2022-11-04T04:51:48.365Z,24.20
2022-11-04T04:52:11.054Z,24.02
2022-11-04T04:52:34.978Z,24.38
2022-11-04T04:52:58.254Z,25.15
2022-11-04T04:53:21.082Z,24.35
2022-11-04T04:53:43.774Z,24.80
2022-11-04T04:54:06.585Z,24.75
2022-11-04T04:54:29.319Z,24.40
2022-11-04T04:54:52.246Z,24.00
2022-11-04T04:55:15.359Z,23.45
2022-11-04T04:55:40.781Z,23.75
2022-11-04T04:56:05.115Z,23.50
2022-11-04T04:56:27.854Z,23.45
2022-11-04T04:56:50.565Z,23.75
2022-11-04T04:57:13.289Z,24.00
2022-11-04T04:57:36.146Z,24.45
2022-11-04T04:57:58.879Z,24.20
2022-11-04T04:58:21.592Z,23.52
2022-11-04T04:58:44.464Z,23.95
2022-11-04T04:59:07.203Z,24.58
2022-11-04T04:59:30.404Z,23.73
2022-11-04T04:59:53.194Z,23.48
2022-11-04T05:00:17.638Z,23.65
2022-11-04T05:00:40.378Z,23.40
2022-11-04T05:01:05.468Z,24.05
2022-11-04T05:01:29.564Z,23.98
2022-11-04T05:01:52.848Z,23.27
2022-11-04T05:02:16.122Z,23.63
2022-11-04T05:02:39.107Z,24.30
2022-11-04T05:03:02.399Z,24.67
2022-11-04T05:03:25.274Z,23.70
2022-11-04T05:03:48.004Z,23.90
2022-11-04T05:04:10.719Z,24.20
2022-11-04T05:04:33.513Z,24.92
2022-11-04T05:04:56.513Z,24.80
2022-11-04T05:05:19.520Z,23.73
2022-11-04T05:05:42.239Z,24.50
2022-11-04T05:06:05.249Z,23.60
2022-11-04T05:06:28.015Z,23.92
2022-11-04T05:06:51.019Z,24.35
2022-11-04T05:07:13.827Z,24.05
2022-11-04T05:07:36.540Z,24.63
2022-11-04T05:08:05.904Z,24.05
2022-11-04T05:08:29.038Z,23.60
2022-11-04T05:08:51.889Z,23.92
2022-11-04T05:09:14.722Z,24.15
2022-11-04T05:09:37.441Z,23.27
2022-11-04T05:10:00.108Z,22.80
2022-11-04T05:10:22.877Z,24.23
2022-11-04T05:10:45.604Z,24.38
2022-11-04T05:11:08.382Z,24.23
2022-11-04T05:11:31.309Z,24.17
2022-11-04T05:11:54.253Z,24.00
2022-11-04T05:12:17.065Z,24.20
2022-11-04T05:12:59.009Z,24.27
2022-11-04T05:13:28.503Z,25.38
2022-11-04T05:13:51.374Z,24.67
2022-11-04T05:14:14.845Z,24.75
2022-11-04T05:14:37.856Z,25.10
2022-11-04T05:15:00.769Z,24.80
2022-11-04T05:15:23.529Z,24.80
2022-11-04T05:15:46.309Z,24.35
2022-11-04T05:16:11.174Z,24.83
2022-11-04T05:16:39.477Z,23.85
2022-11-04T05:17:03.819Z,24.27
2022-11-04T05:17:26.575Z,24.60
2022-11-04T05:17:53.534Z,24.38
2022-11-04T05:18:16.289Z,24.33
2022-11-04T05:18:39.552Z,25.08
2022-11-04T05:19:02.249Z,25.40
2022-11-04T05:19:24.962Z,24.75
2022-11-04T05:19:47.855Z,24.23
2022-11-04T05:20:11.529Z,24.20
2022-11-04T05:20:34.543Z,24.48
2022-11-04T05:20:57.453Z,24.40
2022-11-04T05:21:20.168Z,25.23
2022-11-04T05:21:42.936Z,25.15
2022-11-04T05:22:05.768Z,24.88
2022-11-04T05:22:28.894Z,25.65
2022-11-04T05:22:51.755Z,25.58
2022-11-04T05:23:15.053Z,25.50
2022-11-04T05:23:40.650Z,25.52
2022-11-04T05:24:03.387Z,26.15
2022-11-04T05:24:26.202Z,26.83
2022-11-04T05:24:48.877Z,27.02
2022-11-04T05:25:14.089Z,26.83
2022-11-04T05:25:36.794Z,27.42
2022-11-04T05:26:00.391Z,26.35
2022-11-04T05:26:23.238Z,27.02
2022-11-04T05:26:46.000Z,27.60
2022-11-04T05:27:08.718Z,26.40
2022-11-04T05:27:31.423Z,26.17
2022-11-04T05:27:54.094Z,26.02
2022-11-04T05:28:16.872Z,25.48
2022-11-04T05:28:39.860Z,25.98
2022-11-04T05:29:02.660Z,26.02
2022-11-04T05:29:25.608Z,26.73
2022-11-04T05:29:48.277Z,26.20
2022-11-04T05:30:11.834Z,26.73
2022-11-04T05:30:34.818Z,27.00
2022-11-04T05:30:57.450Z,25.40
2022-11-04T05:31:21.539Z,25.58
2022-11-04T05:31:44.200Z,25.55
2022-11-04T05:32:07.098Z,25.75
2022-11-04T05:32:30.920Z,26.13
2022-11-04T05:32:53.604Z,25.85